sensor_id;sensor_type;location;lat;lon;timestamp;P1;durP1;ratioP1;P2;durP2;ratioP2
43891;SDS011;29555;45.350;5.578;2023-08-01T00:01:23;2.60;;;2.33;;
43891;SDS011;29555;45.350;5.578;2023-08-01T00:03:48;2.25;;;2.03;;
43891;SDS011;29555;45.350;5.578;2023-08-01T00:06:14;2.80;;;1.75;;
43891;SDS011;29555;45.350;5.578;2023-08-01T00:08:39;6.28;;;2.35;;
43891;SDS011;29555;45.350;5.578;2023-08-01T00:11:04;3.50;;;1.90;;
43891;SDS011;29555;45.350;5.578;2023-08-01T00:13:30;1.80;;;1.70;;
43891;SDS011;29555;45.350;5.578;2023-08-01T00:15:55;3.97;;;1.75;;
43891;SDS011;29555;45.350;5.578;2023-08-01T00:18:21;2.33;;;1.95;;
43891;SDS011;29555;45.350;5.578;2023-08-01T00:20:46;3.85;;;2.40;;
43891;SDS011;29555;45.350;5.578;2023-08-01T00:23:11;3.83;;;2.75;;
43891;SDS011;29555;45.350;5.578;2023-08-01T00:25:37;2.92;;;1.98;;
43891;SDS011;29555;45.350;5.578;2023-08-01T00:28:02;3.83;;;2.20;;
43891;SDS011;29555;45.350;5.578;2023-08-01T00:30:28;3.55;;;2.00;;
43891;SDS011;29555;45.350;5.578;2023-08-01T00:32:53;3.08;;;1.83;;
43891;SDS011;29555;45.350;5.578;2023-08-01T00:35:18;3.55;;;2.05;;
43891;SDS011;29555;45.350;5.578;2023-08-01T00:37:44;9.88;;;2.05;;
43891;SDS011;29555;45.350;5.578;2023-08-01T00:40:09;3.10;;;2.33;;
43891;SDS011;29555;45.350;5.578;2023-08-01T00:42:35;5.45;;;2.72;;
43891;SDS011;29555;45.350;5.578;2023-08-01T00:45:02;3.63;;;1.88;;
43891;SDS011;29555;45.350;5.578;2023-08-01T00:47:29;4.20;;;2.78;;
43891;SDS011;29555;45.350;5.578;2023-08-01T00:49:54;4.35;;;2.45;;
43891;SDS011;29555;45.350;5.578;2023-08-01T00:52:20;3.58;;;2.90;;
43891;SDS011;29555;45.350;5.578;2023-08-01T00:54:45;3.17;;;2.08;;
43891;SDS011;29555;45.350;5.578;2023-08-01T00:57:10;1.77;;;1.67;;
43891;SDS011;29555;45.350;5.578;2023-08-01T00:59:36;3.50;;;2.05;;
43891;SDS011;29555;45.350;5.578;2023-08-01T01:02:01;2.42;;;1.70;;
43891;SDS011;29555;45.350;5.578;2023-08-01T01:04:27;7.53;;;2.65;;
43891;SDS011;29555;45.350;5.578;2023-08-01T01:07:00;3.03;;;2.08;;
43891;SDS011;29555;45.350;5.578;2023-08-01T01:09:28;2.35;;;1.85;;
43891;SDS011;29555;45.350;5.578;2023-08-01T01:11:56;6.95;;;2.70;;
43891;SDS011;29555;45.350;5.578;2023-08-01T01:14:22;5.90;;;2.75;;
43891;SDS011;29555;45.350;5.578;2023-08-01T01:16:47;6.10;;;2.17;;
43891;SDS011;29555;45.350;5.578;2023-08-01T01:19:12;3.40;;;2.28;;
43891;SDS011;29555;45.350;5.578;2023-08-01T01:21:38;2.83;;;2.42;;
43891;SDS011;29555;45.350;5.578;2023-08-01T01:24:05;3.53;;;1.65;;
43891;SDS011;29555;45.350;5.578;2023-08-01T01:26:32;1.83;;;1.52;;
43891;SDS011;29555;45.350;5.578;2023-08-01T01:28:58;3.05;;;2.30;;
43891;SDS011;29555;45.350;5.578;2023-08-01T01:31:24;4.38;;;2.75;;
43891;SDS011;29555;45.350;5.578;2023-08-01T01:33:50;3.13;;;1.95;;
43891;SDS011;29555;45.350;5.578;2023-08-01T01:36:16;3.13;;;2.33;;
43891;SDS011;29555;45.350;5.578;2023-08-01T01:38:41;3.60;;;2.10;;
43891;SDS011;29555;45.350;5.578;2023-08-01T01:41:06;3.90;;;2.75;;
43891;SDS011;29555;45.350;5.578;2023-08-01T01:43:32;2.50;;;2.15;;
43891;SDS011;29555;45.350;5.578;2023-08-01T01:45:57;4.30;;;2.78;;
43891;SDS011;29555;45.350;5.578;2023-08-01T01:48:22;3.63;;;1.52;;
43891;SDS011;29555;45.350;5.578;2023-08-01T01:50:48;5.25;;;2.22;;
43891;SDS011;29555;45.350;5.578;2023-08-01T01:53:13;4.68;;;2.15;;
43891;SDS011;29555;45.350;5.578;2023-08-01T01:55:38;2.65;;;1.77;;
43891;SDS011;29555;45.350;5.578;2023-08-01T01:58:05;6.93;;;2.97;;
43891;SDS011;29555;45.350;5.578;2023-08-01T02:00:31;6.68;;;2.20;;
43891;SDS011;29555;45.350;5.578;2023-08-01T02:02:56;5.10;;;2.80;;
43891;SDS011;29555;45.350;5.578;2023-08-01T02:05:21;3.15;;;2.22;;
43891;SDS011;29555;45.350;5.578;2023-08-01T02:07:47;2.35;;;2.10;;
43891;SDS011;29555;45.350;5.578;2023-08-01T02:10:12;2.80;;;2.10;;
43891;SDS011;29555;45.350;5.578;2023-08-01T02:12:38;5.03;;;2.15;;
43891;SDS011;29555;45.350;5.578;2023-08-01T02:15:03;2.60;;;2.20;;
43891;SDS011;29555;45.350;5.578;2023-08-01T02:17:29;3.35;;;2.22;;
43891;SDS011;29555;45.350;5.578;2023-08-01T02:19:55;4.25;;;2.72;;
43891;SDS011;29555;45.350;5.578;2023-08-01T02:22:20;2.63;;;1.83;;
43891;SDS011;29555;45.350;5.578;2023-08-01T02:24:45;2.55;;;2.33;;
43891;SDS011;29555;45.350;5.578;2023-08-01T02:27:11;2.85;;;2.47;;
43891;SDS011;29555;45.350;5.578;2023-08-01T02:29:36;2.78;;;2.00;;
43891;SDS011;29555;45.350;5.578;2023-08-01T02:32:02;2.42;;;1.83;;
43891;SDS011;29555;45.350;5.578;2023-08-01T02:34:27;4.05;;;2.38;;
43891;SDS011;29555;45.350;5.578;2023-08-01T02:36:53;4.50;;;2.40;;
43891;SDS011;29555;45.350;5.578;2023-08-01T02:39:18;5.38;;;2.40;;
43891;SDS011;29555;45.350;5.578;2023-08-01T02:41:43;5.13;;;2.40;;
43891;SDS011;29555;45.350;5.578;2023-08-01T02:44:09;6.20;;;3.33;;
43891;SDS011;29555;45.350;5.578;2023-08-01T02:46:34;3.03;;;2.13;;
43891;SDS011;29555;45.350;5.578;2023-08-01T02:48:59;8.15;;;3.58;;
43891;SDS011;29555;45.350;5.578;2023-08-01T02:51:25;3.47;;;2.53;;
43891;SDS011;29555;45.350;5.578;2023-08-01T02:53:50;4.75;;;2.45;;
43891;SDS011;29555;45.350;5.578;2023-08-01T02:56:15;5.20;;;3.10;;
43891;SDS011;29555;45.350;5.578;2023-08-01T02:58:41;16.27;;;2.45;;
43891;SDS011;29555;45.350;5.578;2023-08-01T03:01:07;5.22;;;2.90;;
43891;SDS011;29555;45.350;5.578;2023-08-01T03:03:34;8.52;;;3.60;;
43891;SDS011;29555;45.350;5.578;2023-08-01T03:06:01;3.88;;;2.28;;
43891;SDS011;29555;45.350;5.578;2023-08-01T03:08:26;4.05;;;2.65;;
43891;SDS011;29555;45.350;5.578;2023-08-01T03:10:53;3.97;;;2.67;;
43891;SDS011;29555;45.350;5.578;2023-08-01T03:13:19;7.10;;;2.97;;
43891;SDS011;29555;45.350;5.578;2023-08-01T03:15:45;3.40;;;2.05;;
43891;SDS011;29555;45.350;5.578;2023-08-01T03:18:10;2.97;;;2.17;;
43891;SDS011;29555;45.350;5.578;2023-08-01T03:20:36;2.85;;;2.25;;
43891;SDS011;29555;45.350;5.578;2023-08-01T03:23:01;7.07;;;2.30;;
43891;SDS011;29555;45.350;5.578;2023-08-01T03:25:27;4.68;;;2.53;;
43891;SDS011;29555;45.350;5.578;2023-08-01T03:27:52;5.97;;;2.90;;
43891;SDS011;29555;45.350;5.578;2023-08-01T03:30:19;5.10;;;2.90;;
43891;SDS011;29555;45.350;5.578;2023-08-01T03:32:45;3.60;;;1.88;;
43891;SDS011;29555;45.350;5.578;2023-08-01T03:35:11;6.13;;;3.38;;
43891;SDS011;29555;45.350;5.578;2023-08-01T03:37:36;4.15;;;2.22;;
43891;SDS011;29555;45.350;5.578;2023-08-01T03:40:03;3.85;;;2.65;;
43891;SDS011;29555;45.350;5.578;2023-08-01T03:42:28;5.18;;;2.17;;
43891;SDS011;29555;45.350;5.578;2023-08-01T03:44:54;3.22;;;2.45;;
43891;SDS011;29555;45.350;5.578;2023-08-01T03:47:19;4.65;;;2.70;;
43891;SDS011;29555;45.350;5.578;2023-08-01T03:49:45;3.33;;;2.40;;
43891;SDS011;29555;45.350;5.578;2023-08-01T03:52:10;3.72;;;3.03;;
43891;SDS011;29555;45.350;5.578;2023-08-01T03:54:35;2.75;;;2.55;;
43891;SDS011;29555;45.350;5.578;2023-08-01T03:57:01;2.45;;;1.77;;
43891;SDS011;29555;45.350;5.578;2023-08-01T03:59:27;3.60;;;2.88;;
43891;SDS011;29555;45.350;5.578;2023-08-01T04:01:52;6.43;;;2.95;;
43891;SDS011;29555;45.350;5.578;2023-08-01T04:04:18;4.10;;;2.45;;
43891;SDS011;29555;45.350;5.578;2023-08-01T04:06:45;6.78;;;3.03;;
43891;SDS011;29555;45.350;5.578;2023-08-01T04:09:10;3.50;;;2.25;;
43891;SDS011;29555;45.350;5.578;2023-08-01T04:11:35;4.95;;;2.65;;
43891;SDS011;29555;45.350;5.578;2023-08-01T04:14:01;4.32;;;2.50;;
43891;SDS011;29555;45.350;5.578;2023-08-01T04:16:26;4.57;;;3.58;;
43891;SDS011;29555;45.350;5.578;2023-08-01T04:18:51;2.88;;;2.55;;
43891;SDS011;29555;45.350;5.578;2023-08-01T04:21:17;3.38;;;2.55;;
43891;SDS011;29555;45.350;5.578;2023-08-01T04:23:43;4.43;;;3.38;;
43891;SDS011;29555;45.350;5.578;2023-08-01T04:26:08;9.27;;;2.92;;
43891;SDS011;29555;45.350;5.578;2023-08-01T04:28:34;5.03;;;3.13;;
43891;SDS011;29555;45.350;5.578;2023-08-01T04:31:00;7.68;;;3.65;;
43891;SDS011;29555;45.350;5.578;2023-08-01T04:33:25;4.95;;;3.05;;
43891;SDS011;29555;45.350;5.578;2023-08-01T04:35:51;12.63;;;2.83;;
43891;SDS011;29555;45.350;5.578;2023-08-01T04:38:16;8.23;;;3.30;;
43891;SDS011;29555;45.350;5.578;2023-08-01T04:40:42;7.25;;;2.55;;
43891;SDS011;29555;45.350;5.578;2023-08-01T04:43:07;4.63;;;3.15;;
43891;SDS011;29555;45.350;5.578;2023-08-01T04:45:33;3.75;;;2.75;;
43891;SDS011;29555;45.350;5.578;2023-08-01T04:47:58;4.78;;;2.65;;
43891;SDS011;29555;45.350;5.578;2023-08-01T04:50:23;4.30;;;2.75;;
43891;SDS011;29555;45.350;5.578;2023-08-01T04:52:49;4.30;;;3.15;;
43891;SDS011;29555;45.350;5.578;2023-08-01T04:55:14;7.45;;;3.35;;
43891;SDS011;29555;45.350;5.578;2023-08-01T04:57:39;6.57;;;3.35;;
43891;SDS011;29555;45.350;5.578;2023-08-01T05:00:05;2.90;;;2.47;;
43891;SDS011;29555;45.350;5.578;2023-08-01T05:02:31;5.47;;;3.80;;
43891;SDS011;29555;45.350;5.578;2023-08-01T05:04:56;9.52;;;3.15;;
43891;SDS011;29555;45.350;5.578;2023-08-01T05:07:22;7.55;;;2.20;;
43891;SDS011;29555;45.350;5.578;2023-08-01T05:09:47;5.30;;;3.10;;
43891;SDS011;29555;45.350;5.578;2023-08-01T05:12:12;5.00;;;2.75;;
43891;SDS011;29555;45.350;5.578;2023-08-01T05:14:38;6.93;;;3.00;;
43891;SDS011;29555;45.350;5.578;2023-08-01T05:17:03;4.43;;;2.67;;
43891;SDS011;29555;45.350;5.578;2023-08-01T05:19:29;3.78;;;2.80;;
43891;SDS011;29555;45.350;5.578;2023-08-01T05:21:54;3.88;;;2.88;;
43891;SDS011;29555;45.350;5.578;2023-08-01T05:24:20;5.78;;;3.13;;
43891;SDS011;29555;45.350;5.578;2023-08-01T05:26:46;3.80;;;2.80;;
43891;SDS011;29555;45.350;5.578;2023-08-01T05:29:12;5.40;;;3.05;;
43891;SDS011;29555;45.350;5.578;2023-08-01T05:31:37;4.45;;;3.33;;
43891;SDS011;29555;45.350;5.578;2023-08-01T05:34:03;7.18;;;3.15;;
43891;SDS011;29555;45.350;5.578;2023-08-01T05:36:28;4.13;;;2.38;;
43891;SDS011;29555;45.350;5.578;2023-08-01T05:38:53;3.92;;;3.13;;
43891;SDS011;29555;45.350;5.578;2023-08-01T05:41:19;5.78;;;3.15;;
43891;SDS011;29555;45.350;5.578;2023-08-01T05:43:44;4.13;;;2.45;;
43891;SDS011;29555;45.350;5.578;2023-08-01T05:46:11;5.70;;;2.35;;
43891;SDS011;29555;45.350;5.578;2023-08-01T05:48:37;3.55;;;3.25;;
43891;SDS011;29555;45.350;5.578;2023-08-01T05:51:02;3.08;;;2.42;;
43891;SDS011;29555;45.350;5.578;2023-08-01T05:53:27;4.35;;;2.83;;
43891;SDS011;29555;45.350;5.578;2023-08-01T05:55:53;3.72;;;2.63;;
43891;SDS011;29555;45.350;5.578;2023-08-01T05:58:19;3.75;;;2.85;;
43891;SDS011;29555;45.350;5.578;2023-08-01T06:00:44;4.68;;;2.33;;
43891;SDS011;29555;45.350;5.578;2023-08-01T06:03:09;3.75;;;3.38;;
43891;SDS011;29555;45.350;5.578;2023-08-01T06:05:35;6.20;;;3.15;;
43891;SDS011;29555;45.350;5.578;2023-08-01T06:08:00;6.90;;;3.08;;
43891;SDS011;29555;45.350;5.578;2023-08-01T06:10:26;9.90;;;2.63;;
43891;SDS011;29555;45.350;5.578;2023-08-01T06:12:51;3.30;;;2.10;;
43891;SDS011;29555;45.350;5.578;2023-08-01T06:15:16;3.10;;;2.58;;
43891;SDS011;29555;45.350;5.578;2023-08-01T06:17:42;5.22;;;3.63;;
43891;SDS011;29555;45.350;5.578;2023-08-01T06:20:07;4.18;;;2.90;;
43891;SDS011;29555;45.350;5.578;2023-08-01T06:22:33;7.57;;;2.13;;
43891;SDS011;29555;45.350;5.578;2023-08-01T06:24:59;4.50;;;2.97;;
43891;SDS011;29555;45.350;5.578;2023-08-01T06:27:24;5.63;;;2.88;;
43891;SDS011;29555;45.350;5.578;2023-08-01T06:29:50;5.93;;;3.63;;
43891;SDS011;29555;45.350;5.578;2023-08-01T06:32:15;4.63;;;3.17;;
43891;SDS011;29555;45.350;5.578;2023-08-01T06:34:40;9.07;;;2.33;;
43891;SDS011;29555;45.350;5.578;2023-08-01T06:37:06;3.15;;;2.30;;
43891;SDS011;29555;45.350;5.578;2023-08-01T06:39:31;4.63;;;2.80;;
43891;SDS011;29555;45.350;5.578;2023-08-01T06:41:57;4.95;;;3.28;;
43891;SDS011;29555;45.350;5.578;2023-08-01T06:44:22;4.35;;;2.55;;
43891;SDS011;29555;45.350;5.578;2023-08-01T06:46:47;3.97;;;3.08;;
43891;SDS011;29555;45.350;5.578;2023-08-01T06:49:13;5.38;;;2.63;;
43891;SDS011;29555;45.350;5.578;2023-08-01T06:51:38;8.18;;;3.88;;
43891;SDS011;29555;45.350;5.578;2023-08-01T06:54:03;5.82;;;3.55;;
43891;SDS011;29555;45.350;5.578;2023-08-01T06:56:29;10.68;;;3.05;;
43891;SDS011;29555;45.350;5.578;2023-08-01T06:58:54;7.07;;;3.08;;
43891;SDS011;29555;45.350;5.578;2023-08-01T07:01:19;4.97;;;3.03;;
43891;SDS011;29555;45.350;5.578;2023-08-01T07:03:45;4.63;;;3.35;;
43891;SDS011;29555;45.350;5.578;2023-08-01T07:06:10;4.35;;;3.38;;
43891;SDS011;29555;45.350;5.578;2023-08-01T07:08:36;8.50;;;2.85;;
43891;SDS011;29555;45.350;5.578;2023-08-01T07:11:01;9.35;;;3.28;;
43891;SDS011;29555;45.350;5.578;2023-08-01T07:13:27;3.42;;;2.95;;
43891;SDS011;29555;45.350;5.578;2023-08-01T07:15:53;4.32;;;2.42;;
43891;SDS011;29555;45.350;5.578;2023-08-01T07:18:18;3.70;;;2.80;;
43891;SDS011;29555;45.350;5.578;2023-08-01T07:20:44;3.63;;;2.28;;
43891;SDS011;29555;45.350;5.578;2023-08-01T07:23:09;5.65;;;3.05;;
43891;SDS011;29555;45.350;5.578;2023-08-01T07:25:38;3.05;;;2.45;;
43891;SDS011;29555;45.350;5.578;2023-08-01T07:28:03;5.47;;;2.47;;
43891;SDS011;29555;45.350;5.578;2023-08-01T07:30:29;5.22;;;3.67;;
43891;SDS011;29555;45.350;5.578;2023-08-01T07:32:54;8.23;;;4.07;;
43891;SDS011;29555;45.350;5.578;2023-08-01T07:35:19;6.85;;;3.05;;
43891;SDS011;29555;45.350;5.578;2023-08-01T07:37:45;5.70;;;3.03;;
43891;SDS011;29555;45.350;5.578;2023-08-01T07:40:10;4.40;;;3.13;;
43891;SDS011;29555;45.350;5.578;2023-08-01T07:42:36;4.10;;;3.13;;
43891;SDS011;29555;45.350;5.578;2023-08-01T07:45:01;8.65;;;2.90;;
43891;SDS011;29555;45.350;5.578;2023-08-01T07:47:27;4.53;;;3.33;;
43891;SDS011;29555;45.350;5.578;2023-08-01T07:49:52;3.58;;;2.78;;
43891;SDS011;29555;45.350;5.578;2023-08-01T07:52:17;8.77;;;3.45;;
43891;SDS011;29555;45.350;5.578;2023-08-01T07:54:43;6.65;;;3.17;;
43891;SDS011;29555;45.350;5.578;2023-08-01T07:57:08;5.53;;;3.03;;
43891;SDS011;29555;45.350;5.578;2023-08-01T07:59:34;9.32;;;3.22;;
43891;SDS011;29555;45.350;5.578;2023-08-01T08:01:59;3.95;;;2.95;;
43891;SDS011;29555;45.350;5.578;2023-08-01T08:04:25;6.05;;;2.95;;
43891;SDS011;29555;45.350;5.578;2023-08-01T08:06:50;6.88;;;3.90;;
43891;SDS011;29555;45.350;5.578;2023-08-01T08:09:17;16.98;;;3.70;;
43891;SDS011;29555;45.350;5.578;2023-08-01T08:11:42;4.65;;;3.10;;
43891;SDS011;29555;45.350;5.578;2023-08-01T08:14:07;5.75;;;3.80;;
43891;SDS011;29555;45.350;5.578;2023-08-01T08:16:33;7.22;;;2.85;;
43891;SDS011;29555;45.350;5.578;2023-08-01T08:18:59;2.85;;;2.63;;
43891;SDS011;29555;45.350;5.578;2023-08-01T08:21:24;5.80;;;3.03;;
43891;SDS011;29555;45.350;5.578;2023-08-01T08:23:49;7.53;;;4.28;;
43891;SDS011;29555;45.350;5.578;2023-08-01T08:26:15;4.38;;;2.35;;
43891;SDS011;29555;45.350;5.578;2023-08-01T08:28:40;6.35;;;3.10;;
43891;SDS011;29555;45.350;5.578;2023-08-01T08:31:07;5.93;;;3.33;;
43891;SDS011;29555;45.350;5.578;2023-08-01T08:33:33;13.55;;;3.08;;
43891;SDS011;29555;45.350;5.578;2023-08-01T08:35:59;3.35;;;2.47;;
43891;SDS011;29555;45.350;5.578;2023-08-01T08:38:24;4.75;;;2.55;;
43891;SDS011;29555;45.350;5.578;2023-08-01T08:43:34;9.02;;;4.68;;
43891;SDS011;29555;45.350;5.578;2023-08-01T08:46:01;27.25;;;13.05;;
43891;SDS011;29555;45.350;5.578;2023-08-01T08:48:28;44.28;;;21.48;;
43891;SDS011;29555;45.350;5.578;2023-08-01T08:50:54;34.85;;;15.45;;
43891;SDS011;29555;45.350;5.578;2023-08-01T08:53:21;23.38;;;10.90;;
43891;SDS011;29555;45.350;5.578;2023-08-01T08:55:47;10.57;;;7.57;;
43891;SDS011;29555;45.350;5.578;2023-08-01T08:58:13;9.90;;;5.50;;
43891;SDS011;29555;45.350;5.578;2023-08-01T09:00:39;5.38;;;4.68;;
43891;SDS011;29555;45.350;5.578;2023-08-01T09:03:05;9.55;;;4.85;;
43891;SDS011;29555;45.350;5.578;2023-08-01T09:05:32;6.25;;;3.38;;
43891;SDS011;29555;45.350;5.578;2023-08-01T09:08:04;4.60;;;3.88;;
43891;SDS011;29555;45.350;5.578;2023-08-01T09:10:33;8.70;;;4.20;;
43891;SDS011;29555;45.350;5.578;2023-08-01T09:12:58;4.32;;;3.00;;
43891;SDS011;29555;45.350;5.578;2023-08-01T09:15:25;6.38;;;3.80;;
43891;SDS011;29555;45.350;5.578;2023-08-01T09:17:53;7.10;;;4.13;;
43891;SDS011;29555;45.350;5.578;2023-08-01T09:20:25;7.03;;;4.63;;
43891;SDS011;29555;45.350;5.578;2023-08-01T09:22:52;19.15;;;3.85;;
43891;SDS011;29555;45.350;5.578;2023-08-01T09:25:17;5.78;;;3.67;;
43891;SDS011;29555;45.350;5.578;2023-08-01T09:27:42;7.75;;;4.68;;
43891;SDS011;29555;45.350;5.578;2023-08-01T09:30:09;5.72;;;3.45;;
43891;SDS011;29555;45.350;5.578;2023-08-01T09:32:37;7.80;;;3.42;;
43891;SDS011;29555;45.350;5.578;2023-08-01T09:35:03;4.75;;;3.72;;
43891;SDS011;29555;45.350;5.578;2023-08-01T09:37:38;3.38;;;2.47;;
43891;SDS011;29555;45.350;5.578;2023-08-01T09:40:10;8.43;;;3.13;;
43891;SDS011;29555;45.350;5.578;2023-08-01T09:47:44;5.80;;;3.55;;
43891;SDS011;29555;45.350;5.578;2023-08-01T09:50:10;6.20;;;3.55;;
43891;SDS011;29555;45.350;5.578;2023-08-01T09:52:38;4.82;;;3.53;;
43891;SDS011;29555;45.350;5.578;2023-08-01T09:55:03;4.93;;;2.80;;
43891;SDS011;29555;45.350;5.578;2023-08-01T09:57:29;5.75;;;3.30;;
43891;SDS011;29555;45.350;5.578;2023-08-01T09:59:56;5.47;;;3.28;;
43891;SDS011;29555;45.350;5.578;2023-08-01T10:02:21;9.52;;;3.10;;
43891;SDS011;29555;45.350;5.578;2023-08-01T10:04:49;6.55;;;3.60;;
43891;SDS011;29555;45.350;5.578;2023-08-01T10:07:17;5.00;;;2.72;;
43891;SDS011;29555;45.350;5.578;2023-08-01T10:09:51;4.40;;;2.80;;
43891;SDS011;29555;45.350;5.578;2023-08-01T10:12:19;5.47;;;3.17;;
43891;SDS011;29555;45.350;5.578;2023-08-01T10:14:45;8.98;;;3.60;;
43891;SDS011;29555;45.350;5.578;2023-08-01T10:17:11;10.23;;;3.78;;
43891;SDS011;29555;45.350;5.578;2023-08-01T10:19:37;3.67;;;3.13;;
43891;SDS011;29555;45.350;5.578;2023-08-01T10:22:02;4.07;;;3.00;;
43891;SDS011;29555;45.350;5.578;2023-08-01T10:24:29;4.88;;;3.70;;
43891;SDS011;29555;45.350;5.578;2023-08-01T10:26:55;4.22;;;3.08;;
43891;SDS011;29555;45.350;5.578;2023-08-01T10:29:20;5.65;;;3.95;;
43891;SDS011;29555;45.350;5.578;2023-08-01T10:31:53;6.90;;;3.67;;
43891;SDS011;29555;45.350;5.578;2023-08-01T10:34:19;3.58;;;2.78;;
43891;SDS011;29555;45.350;5.578;2023-08-01T10:36:55;5.38;;;3.15;;
43891;SDS011;29555;45.350;5.578;2023-08-01T10:41:47;8.43;;;4.00;;
43891;SDS011;29555;45.350;5.578;2023-08-01T10:44:25;8.20;;;3.35;;
43891;SDS011;29555;45.350;5.578;2023-08-01T10:49:20;5.00;;;3.25;;
43891;SDS011;29555;45.350;5.578;2023-08-01T10:51:57;5.78;;;3.17;;
43891;SDS011;29555;45.350;5.578;2023-08-01T10:54:24;6.53;;;3.45;;
43891;SDS011;29555;45.350;5.578;2023-08-01T10:56:55;5.35;;;2.75;;
43891;SDS011;29555;45.350;5.578;2023-08-01T10:59:25;5.25;;;3.72;;
43891;SDS011;29555;45.350;5.578;2023-08-01T11:01:51;5.95;;;3.67;;
43891;SDS011;29555;45.350;5.578;2023-08-01T11:04:19;8.82;;;3.50;;
43891;SDS011;29555;45.350;5.578;2023-08-01T11:06:46;4.38;;;3.15;;
43891;SDS011;29555;45.350;5.578;2023-08-01T11:11:46;6.70;;;2.88;;
43891;SDS011;29555;45.350;5.578;2023-08-01T11:14:14;7.55;;;3.42;;
43891;SDS011;29555;45.350;5.578;2023-08-01T11:16:39;8.15;;;2.67;;
43891;SDS011;29555;45.350;5.578;2023-08-01T11:19:05;2.88;;;2.38;;
43891;SDS011;29555;45.350;5.578;2023-08-01T11:21:31;3.10;;;2.03;;
43891;SDS011;29555;45.350;5.578;2023-08-01T11:24:05;5.13;;;3.08;;
43891;SDS011;29555;45.350;5.578;2023-08-01T11:26:32;7.82;;;3.00;;
43891;SDS011;29555;45.350;5.578;2023-08-01T11:29:00;7.70;;;3.72;;
43891;SDS011;29555;45.350;5.578;2023-08-01T11:31:27;4.15;;;3.03;;
43891;SDS011;29555;45.350;5.578;2023-08-01T11:33:55;6.43;;;3.45;;
43891;SDS011;29555;45.350;5.578;2023-08-01T11:36:22;6.50;;;3.42;;
43891;SDS011;29555;45.350;5.578;2023-08-01T11:38:51;4.10;;;2.33;;
43891;SDS011;29555;45.350;5.578;2023-08-01T11:41:16;6.00;;;3.00;;
43891;SDS011;29555;45.350;5.578;2023-08-01T11:43:42;3.25;;;2.95;;
43891;SDS011;29555;45.350;5.578;2023-08-01T11:46:08;3.95;;;2.83;;
43891;SDS011;29555;45.350;5.578;2023-08-01T11:48:34;2.80;;;2.60;;
43891;SDS011;29555;45.350;5.578;2023-08-01T11:51:01;3.40;;;1.88;;
43891;SDS011;29555;45.350;5.578;2023-08-01T11:53:27;3.47;;;2.90;;
43891;SDS011;29555;45.350;5.578;2023-08-01T11:55:54;2.55;;;2.25;;
43891;SDS011;29555;45.350;5.578;2023-08-01T11:58:28;2.03;;;1.63;;
43891;SDS011;29555;45.350;5.578;2023-08-01T12:01:04;2.78;;;2.38;;
43891;SDS011;29555;45.350;5.578;2023-08-01T12:03:44;3.42;;;1.67;;
43891;SDS011;29555;45.350;5.578;2023-08-01T12:06:13;4.93;;;2.30;;
43891;SDS011;29555;45.350;5.578;2023-08-01T12:08:40;2.53;;;2.10;;
43891;SDS011;29555;45.350;5.578;2023-08-01T12:11:19;2.88;;;2.22;;
43891;SDS011;29555;45.350;5.578;2023-08-01T12:13:45;1.33;;;1.23;;
43891;SDS011;29555;45.350;5.578;2023-08-01T12:16:11;2.35;;;0.98;;
43891;SDS011;29555;45.350;5.578;2023-08-01T12:18:38;1.90;;;1.50;;
43891;SDS011;29555;45.350;5.578;2023-08-01T12:21:04;2.33;;;2.13;;
43891;SDS011;29555;45.350;5.578;2023-08-01T12:23:30;5.97;;;2.28;;
43891;SDS011;29555;45.350;5.578;2023-08-01T12:25:56;5.78;;;2.33;;
43891;SDS011;29555;45.350;5.578;2023-08-01T12:28:21;3.53;;;2.45;;
43891;SDS011;29555;45.350;5.578;2023-08-01T12:30:47;2.28;;;1.60;;
43891;SDS011;29555;45.350;5.578;2023-08-01T12:33:13;2.75;;;1.70;;
43891;SDS011;29555;45.350;5.578;2023-08-01T12:35:39;4.53;;;2.35;;
43891;SDS011;29555;45.350;5.578;2023-08-01T12:38:06;5.38;;;1.95;;
43891;SDS011;29555;45.350;5.578;2023-08-01T12:40:31;3.28;;;2.47;;
43891;SDS011;29555;45.350;5.578;2023-08-01T12:42:57;2.17;;;1.67;;
43891;SDS011;29555;45.350;5.578;2023-08-01T12:45:22;2.88;;;2.10;;
43891;SDS011;29555;45.350;5.578;2023-08-01T12:47:48;2.05;;;1.65;;
43891;SDS011;29555;45.350;5.578;2023-08-01T12:50:14;2.03;;;1.88;;
43891;SDS011;29555;45.350;5.578;2023-08-01T12:52:39;2.25;;;1.63;;
43891;SDS011;29555;45.350;5.578;2023-08-01T12:55:05;2.03;;;1.83;;
43891;SDS011;29555;45.350;5.578;2023-08-01T12:57:30;2.08;;;1.67;;
43891;SDS011;29555;45.350;5.578;2023-08-01T12:59:56;5.70;;;2.20;;
43891;SDS011;29555;45.350;5.578;2023-08-01T13:02:21;5.53;;;2.30;;
43891;SDS011;29555;45.350;5.578;2023-08-01T13:04:47;2.40;;;1.27;;
43891;SDS011;29555;45.350;5.578;2023-08-01T13:07:12;2.00;;;1.37;;
43891;SDS011;29555;45.350;5.578;2023-08-01T13:09:37;2.92;;;1.70;;
43891;SDS011;29555;45.350;5.578;2023-08-01T13:12:03;2.80;;;2.55;;
43891;SDS011;29555;45.350;5.578;2023-08-01T13:14:28;5.80;;;2.22;;
43891;SDS011;29555;45.350;5.578;2023-08-01T13:16:54;3.07;;;1.77;;
43891;SDS011;29555;45.350;5.578;2023-08-01T13:19:19;4.53;;;2.17;;
43891;SDS011;29555;45.350;5.578;2023-08-01T13:21:44;10.57;;;1.60;;
43891;SDS011;29555;45.350;5.578;2023-08-01T13:24:10;2.28;;;1.65;;
43891;SDS011;29555;45.350;5.578;2023-08-01T13:26:35;2.25;;;1.33;;
43891;SDS011;29555;45.350;5.578;2023-08-01T13:29:01;4.22;;;1.58;;
43891;SDS011;29555;45.350;5.578;2023-08-01T13:31:27;1.75;;;1.50;;
43891;SDS011;29555;45.350;5.578;2023-08-01T13:33:53;1.17;;;1.08;;
43891;SDS011;29555;45.350;5.578;2023-08-01T13:36:18;2.80;;;0.98;;
43891;SDS011;29555;45.350;5.578;2023-08-01T13:38:44;2.38;;;1.50;;
43891;SDS011;29555;45.350;5.578;2023-08-01T13:41:09;1.20;;;0.98;;
43891;SDS011;29555;45.350;5.578;2023-08-01T13:43:34;2.63;;;1.45;;
43891;SDS011;29555;45.350;5.578;2023-08-01T13:46:00;1.05;;;0.82;;
43891;SDS011;29555;45.350;5.578;2023-08-01T13:48:25;0.80;;;0.68;;
43891;SDS011;29555;45.350;5.578;2023-08-01T13:50:51;2.50;;;2.03;;
43891;SDS011;29555;45.350;5.578;2023-08-01T13:53:17;1.30;;;0.70;;
43891;SDS011;29555;45.350;5.578;2023-08-01T13:55:43;0.82;;;0.77;;
43891;SDS011;29555;45.350;5.578;2023-08-01T13:58:08;1.45;;;0.63;;
43891;SDS011;29555;45.350;5.578;2023-08-01T14:00:34;1.38;;;1.25;;
43891;SDS011;29555;45.350;5.578;2023-08-01T14:02:59;1.40;;;1.15;;
43891;SDS011;29555;45.350;5.578;2023-08-01T14:05:25;1.65;;;1.52;;
43891;SDS011;29555;45.350;5.578;2023-08-01T14:07:51;1.08;;;1.05;;
43891;SDS011;29555;45.350;5.578;2023-08-01T14:10:17;3.78;;;1.70;;
43891;SDS011;29555;45.350;5.578;2023-08-01T14:12:42;2.55;;;1.15;;
43891;SDS011;29555;45.350;5.578;2023-08-01T14:15:08;2.53;;;1.20;;
43891;SDS011;29555;45.350;5.578;2023-08-01T14:17:34;1.13;;;1.13;;
43891;SDS011;29555;45.350;5.578;2023-08-01T14:20:02;2.65;;;1.65;;
43891;SDS011;29555;45.350;5.578;2023-08-01T14:22:29;0.88;;;0.88;;
43891;SDS011;29555;45.350;5.578;2023-08-01T14:24:54;2.08;;;1.48;;
43891;SDS011;29555;45.350;5.578;2023-08-01T14:27:20;3.23;;;1.03;;
43891;SDS011;29555;45.350;5.578;2023-08-01T14:29:45;1.95;;;1.65;;
43891;SDS011;29555;45.350;5.578;2023-08-01T14:32:11;1.75;;;0.90;;
43891;SDS011;29555;45.350;5.578;2023-08-01T14:34:36;3.08;;;1.30;;
43891;SDS011;29555;45.350;5.578;2023-08-01T14:37:02;1.13;;;1.08;;
43891;SDS011;29555;45.350;5.578;2023-08-01T14:39:28;2.42;;;1.80;;
43891;SDS011;29555;45.350;5.578;2023-08-01T14:41:53;5.53;;;1.00;;
43891;SDS011;29555;45.350;5.578;2023-08-01T14:44:18;0.93;;;0.85;;
43891;SDS011;29555;45.350;5.578;2023-08-01T14:46:44;1.85;;;1.48;;
43891;SDS011;29555;45.350;5.578;2023-08-01T14:49:09;2.63;;;1.27;;
43891;SDS011;29555;45.350;5.578;2023-08-01T14:51:35;2.17;;;1.65;;
43891;SDS011;29555;45.350;5.578;2023-08-01T14:54:00;2.53;;;1.10;;
43891;SDS011;29555;45.350;5.578;2023-08-01T14:56:26;0.70;;;0.68;;